createdAt,value
2022-11-12T00:00:22.865Z,1026.36
2022-11-12T00:01:22.876Z,1026.34
2022-11-12T00:02:22.923Z,1026.39
2022-11-12T00:03:22.902Z,1026.35
2022-11-12T00:04:22.911Z,1026.36
2022-11-12T00:05:22.920Z,1026.32
2022-11-12T00:06:22.932Z,1026.33
2022-11-12T00:07:22.946Z,1026.35
2022-11-12T00:08:23.159Z,1026.33
2022-11-12T00:09:22.965Z,1026.30
2022-11-12T00:10:22.977Z,1026.34
2022-11-12T00:11:22.991Z,1026.33
2022-11-12T00:12:22.999Z,1026.32
2022-11-12T00:13:23.010Z,1026.30
2022-11-12T00:14:23.021Z,1026.30
2022-11-12T00:15:23.035Z,1026.29
2022-11-12T00:16:23.044Z,1026.27
2022-11-12T00:17:23.054Z,1026.27
2022-11-12T00:18:23.141Z,1026.29
2022-11-12T00:19:23.077Z,1026.27
2022-11-12T00:20:23.089Z,1026.30
2022-11-12T00:21:23.096Z,1026.28
2022-11-12T00:22:23.112Z,1026.26
2022-11-12T00:23:23.128Z,1026.29
2022-11-12T00:24:23.131Z,1026.26
2022-11-12T00:25:23.141Z,1026.25
2022-11-12T00:26:23.151Z,1026.28
2022-11-12T00:27:23.165Z,1026.23
2022-11-12T00:28:23.403Z,1026.23
2022-11-12T00:29:23.186Z,1026.22
2022-11-12T00:30:23.200Z,1026.25
2022-11-12T00:31:23.208Z,1026.22
2022-11-12T00:32:23.218Z,1026.21
2022-11-12T00:33:23.229Z,1026.23
2022-11-12T00:34:23.240Z,1026.21
2022-11-12T00:35:23.251Z,1026.24
2022-11-12T00:36:23.263Z,1026.23
2022-11-12T00:37:23.271Z,1026.22
2022-11-12T00:38:23.466Z,1026.26
2022-11-12T00:39:23.294Z,1026.27
2022-11-12T00:40:23.304Z,1026.29
2022-11-12T00:41:23.315Z,1026.30
2022-11-12T00:42:23.327Z,1026.26
2022-11-12T00:43:23.338Z,1026.27
2022-11-12T00:44:23.349Z,1026.30
2022-11-12T00:45:23.360Z,1026.30
2022-11-12T00:46:23.370Z,1026.31
2022-11-12T00:47:23.384Z,1026.34
2022-11-12T00:48:23.601Z,1026.35
2022-11-12T00:49:23.405Z,1026.32
2022-11-12T00:50:23.413Z,1026.33
2022-11-12T00:51:23.426Z,1026.36
2022-11-12T00:52:23.438Z,1026.36
2022-11-12T00:53:23.445Z,1026.36
2022-11-12T00:54:23.460Z,1026.33
2022-11-12T00:55:23.469Z,1026.34
2022-11-12T00:56:23.478Z,1026.34
2022-11-12T00:57:23.489Z,1026.31
2022-11-12T00:58:23.749Z,1026.37
2022-11-12T00:59:23.512Z,1026.33
2022-11-12T01:00:23.522Z,1026.35
2022-11-12T01:01:23.560Z,1026.34
2022-11-12T01:02:23.547Z,1026.32
2022-11-12T01:03:23.574Z,1026.35
2022-11-12T01:04:23.565Z,1026.32
2022-11-12T01:05:23.599Z,1026.31
2022-11-12T01:06:23.597Z,1026.26
2022-11-12T01:07:23.606Z,1026.29
2022-11-12T01:08:24.203Z,1026.28
2022-11-12T01:09:23.618Z,1026.32
2022-11-12T01:10:23.634Z,1026.29
2022-11-12T01:11:23.649Z,1026.30
2022-11-12T01:12:23.657Z,1026.29
2022-11-12T01:13:23.661Z,1026.25
2022-11-12T01:14:23.676Z,1026.29
2022-11-12T01:15:23.687Z,1026.27
2022-11-12T01:16:23.695Z,1026.27
2022-11-12T01:17:23.706Z,1026.26
2022-11-12T01:18:23.952Z,1026.26
2022-11-12T01:19:23.725Z,1026.23
2022-11-12T01:20:23.737Z,1026.26
2022-11-12T01:21:23.748Z,1026.24
2022-11-12T01:22:23.760Z,1026.24
2022-11-12T01:23:23.770Z,1026.21
2022-11-12T01:24:23.778Z,1026.21
2022-11-12T01:25:23.791Z,1026.22
2022-11-12T01:26:23.800Z,1026.22
2022-11-12T01:27:23.810Z,1026.22
2022-11-12T01:28:24.187Z,1026.22
2022-11-12T01:29:23.832Z,1026.28
2022-11-12T01:30:23.842Z,1026.24
2022-11-12T01:31:23.856Z,1026.23
2022-11-12T01:32:23.866Z,1026.25
2022-11-12T01:33:23.877Z,1026.29
2022-11-12T01:34:23.888Z,1026.29
2022-11-12T01:35:23.897Z,1026.30
2022-11-12T01:36:23.906Z,1026.27
2022-11-12T01:37:23.919Z,1026.29
2022-11-12T01:38:24.366Z,1026.30
2022-11-12T01:39:23.945Z,1026.32
2022-11-12T01:40:23.949Z,1026.31
2022-11-12T01:41:23.961Z,1026.30
2022-11-12T01:42:23.970Z,1026.34
2022-11-12T01:43:23.981Z,1026.36
2022-11-12T01:44:23.992Z,1026.39
2022-11-12T01:45:24.002Z,1026.36
2022-11-12T01:46:24.013Z,1026.35
2022-11-12T01:47:24.024Z,1026.33
2022-11-12T01:48:24.334Z,1026.36
2022-11-12T01:49:24.046Z,1026.39
2022-11-12T01:50:24.055Z,1026.36
2022-11-12T01:51:24.065Z,1026.39
2022-11-12T01:52:24.076Z,1026.36
2022-11-12T01:53:24.088Z,1026.35
2022-11-12T01:54:24.099Z,1026.38
2022-11-12T01:55:24.119Z,1026.35
2022-11-12T01:56:24.119Z,1026.37
2022-11-12T01:57:24.132Z,1026.40
2022-11-12T01:58:24.481Z,1026.42
2022-11-12T01:59:24.154Z,1026.40
2022-11-12T02:00:24.167Z,1026.39
2022-11-12T02:01:24.255Z,1026.38
2022-11-12T02:02:24.203Z,1026.44
2022-11-12T02:03:24.195Z,1026.41
2022-11-12T02:04:24.206Z,1026.40
2022-11-12T02:05:24.219Z,1026.39
2022-11-12T02:06:24.228Z,1026.36
2022-11-12T02:07:24.241Z,1026.40
2022-11-12T02:08:24.457Z,1026.40
2022-11-12T02:09:24.264Z,1026.38
2022-11-12T02:10:24.271Z,1026.36
2022-11-12T02:11:24.282Z,1026.35
2022-11-12T02:12:24.291Z,1026.42
2022-11-12T02:13:24.301Z,1026.33
2022-11-12T02:14:24.315Z,1026.34
2022-11-12T02:15:24.325Z,1026.33
2022-11-12T02:16:24.334Z,1026.34
2022-11-12T02:17:24.349Z,1026.38
2022-11-12T02:18:24.623Z,1026.39
2022-11-12T02:19:24.369Z,1026.39
2022-11-12T02:20:24.383Z,1026.38
2022-11-12T02:21:24.389Z,1026.38
2022-11-12T02:22:24.399Z,1026.36
2022-11-12T02:23:24.419Z,1026.38
2022-11-12T02:24:24.420Z,1026.40
2022-11-12T02:25:24.433Z,1026.42
2022-11-12T02:26:24.444Z,1026.40
2022-11-12T02:27:24.453Z,1026.40
2022-11-12T02:28:24.899Z,1026.38
2022-11-12T02:29:24.476Z,1026.37
2022-11-12T02:30:24.486Z,1026.38
2022-11-12T02:31:24.499Z,1026.40
2022-11-12T02:32:24.508Z,1026.38
2022-11-12T02:33:24.520Z,1026.40
2022-11-12T02:34:24.529Z,1026.39
2022-11-12T02:35:24.540Z,1026.39
2022-11-12T02:36:24.550Z,1026.40
2022-11-12T02:37:24.569Z,1026.40
2022-11-12T02:38:24.811Z,1026.42
2022-11-12T02:39:24.584Z,1026.45
2022-11-12T02:40:24.593Z,1026.45
2022-11-12T02:41:24.606Z,1026.48
2022-11-12T02:42:24.616Z,1026.50
2022-11-12T02:43:24.627Z,1026.57
2022-11-12T02:44:24.637Z,1026.54
2022-11-12T02:45:24.648Z,1026.60
2022-11-12T02:46:24.660Z,1026.57
2022-11-12T02:47:24.673Z,1026.62
2022-11-12T02:48:24.691Z,1026.70
2022-11-12T02:49:24.691Z,1026.64
2022-11-12T02:50:24.702Z,1026.68
2022-11-12T02:51:24.715Z,1026.65
2022-11-12T02:52:24.726Z,1026.67
2022-11-12T02:53:24.736Z,1026.64
2022-11-12T02:54:24.749Z,1026.68
2022-11-12T02:55:24.758Z,1026.71
2022-11-12T02:56:24.769Z,1026.72
2022-11-12T02:57:24.781Z,1026.77
2022-11-12T02:58:25.176Z,1026.72
2022-11-12T02:59:24.800Z,1026.70
2022-11-12T03:00:24.811Z,1026.73
2022-11-12T03:01:24.852Z,1026.75
2022-11-12T03:02:24.835Z,1026.77
2022-11-12T03:03:24.844Z,1026.79
2022-11-12T03:04:24.858Z,1026.80
2022-11-12T03:05:24.866Z,1026.77
2022-11-12T03:06:24.874Z,1026.82
2022-11-12T03:07:24.889Z,1026.81
2022-11-12T03:08:25.310Z,1026.81
2022-11-12T03:09:24.909Z,1026.84
2022-11-12T03:10:24.924Z,1026.82
2022-11-12T03:11:24.930Z,1026.83
2022-11-12T03:12:24.943Z,1026.81
2022-11-12T03:13:24.954Z,1026.81
2022-11-12T03:14:24.966Z,1026.82
2022-11-12T03:15:24.975Z,1026.84
2022-11-12T03:16:24.987Z,1026.82
2022-11-12T03:17:24.998Z,1026.83
2022-11-12T03:18:25.156Z,1026.83
2022-11-12T03:19:25.020Z,1026.85
2022-11-12T03:20:25.030Z,1026.80
2022-11-12T03:21:25.043Z,1026.84
2022-11-12T03:22:25.052Z,1026.84
2022-11-12T03:23:25.062Z,1026.93
2022-11-12T03:24:25.074Z,1026.82
2022-11-12T03:25:25.086Z,1026.85
2022-11-12T03:26:25.095Z,1026.86
2022-11-12T03:27:25.107Z,1026.84
2022-11-12T03:28:25.483Z,1026.85
2022-11-12T03:29:25.130Z,1026.85
2022-11-12T03:30:25.141Z,1026.87
2022-11-12T03:31:25.151Z,1026.87
2022-11-12T03:32:25.161Z,1026.89
2022-11-12T03:33:25.173Z,1026.94
2022-11-12T03:34:25.181Z,1026.90
2022-11-12T03:35:25.196Z,1026.87
2022-11-12T03:36:25.206Z,1026.89
2022-11-12T03:37:25.215Z,1026.89
2022-11-12T03:38:25.484Z,1026.87
2022-11-12T03:39:25.240Z,1026.85
2022-11-12T03:40:25.248Z,1026.88
2022-11-12T03:41:25.265Z,1026.86
2022-11-12T03:42:25.271Z,1026.88
2022-11-12T03:43:25.282Z,1026.85
2022-11-12T03:44:25.289Z,1026.85
2022-11-12T03:45:25.303Z,1026.89
2022-11-12T03:46:25.313Z,1026.90
2022-11-12T03:47:25.326Z,1026.87
2022-11-12T03:48:25.676Z,1026.87
2022-11-12T03:49:25.345Z,1026.82
2022-11-12T03:50:25.359Z,1026.82
2022-11-12T03:51:25.374Z,1026.80
2022-11-12T03:52:25.380Z,1026.85
2022-11-12T03:53:25.391Z,1026.84
2022-11-12T03:54:25.401Z,1026.86
2022-11-12T03:55:25.411Z,1026.85
2022-11-12T03:56:25.421Z,1026.87
2022-11-12T03:57:25.430Z,1026.89
2022-11-12T03:58:25.634Z,1026.86
2022-11-12T03:59:25.462Z,1026.86
2022-11-12T04:00:25.500Z,1026.84
2022-11-12T04:01:25.554Z,1026.84
2022-11-12T04:02:25.485Z,1026.86
2022-11-12T04:03:25.497Z,1026.83
2022-11-12T04:04:25.507Z,1026.88
2022-11-12T04:05:25.516Z,1026.83
2022-11-12T04:06:25.536Z,1026.85
2022-11-12T04:07:25.554Z,1026.86
2022-11-12T04:08:25.767Z,1026.85
2022-11-12T04:09:25.559Z,1026.83
2022-11-12T04:10:25.571Z,1026.85
2022-11-12T04:11:25.580Z,1026.85
2022-11-12T04:12:25.591Z,1026.87
2022-11-12T04:13:25.599Z,1026.90
2022-11-12T04:14:25.620Z,1026.85
2022-11-12T04:15:25.623Z,1026.79
2022-11-12T04:16:25.634Z,1026.83
2022-11-12T04:17:25.643Z,1026.89
2022-11-12T04:18:25.897Z,1026.86
2022-11-12T04:19:25.665Z,1026.87
2022-11-12T04:20:25.677Z,1026.82
2022-11-12T04:21:25.686Z,1026.82
2022-11-12T04:22:25.695Z,1026.86
2022-11-12T04:23:25.706Z,1026.87
2022-11-12T04:24:25.715Z,1026.88
2022-11-12T04:25:25.727Z,1026.88
2022-11-12T04:26:25.739Z,1026.91
2022-11-12T04:27:25.748Z,1026.91
2022-11-12T04:28:26.029Z,1026.92
2022-11-12T04:29:25.769Z,1026.92
2022-11-12T04:30:25.778Z,1026.96
2022-11-12T04:31:25.791Z,1026.97
2022-11-12T04:32:25.797Z,1026.97
2022-11-12T04:33:25.808Z,1027.02
2022-11-12T04:34:25.851Z,1026.98
2022-11-12T04:35:25.828Z,1026.98
2022-11-12T04:36:25.838Z,1026.92
2022-11-12T04:37:25.848Z,1026.91
2022-11-12T04:38:26.190Z,1026.95
2022-11-12T04:39:25.871Z,1027.00
2022-11-12T04:40:25.886Z,1026.95
2022-11-12T04:41:25.890Z,1026.95
2022-11-12T04:42:25.899Z,1026.97
2022-11-12T04:43:25.911Z,1026.95
2022-11-12T04:44:25.920Z,1026.94
2022-11-12T04:45:25.930Z,1026.94
2022-11-12T04:46:25.941Z,1026.89
2022-11-12T04:47:25.955Z,1026.92
2022-11-12T04:48:26.240Z,1026.99
2022-11-12T04:49:25.970Z,1026.96
2022-11-12T04:50:25.979Z,1026.99
2022-11-12T04:51:25.992Z,1026.96
2022-11-12T04:52:26.002Z,1026.99
2022-11-12T04:53:26.010Z,1026.96
2022-11-12T04:54:26.020Z,1026.98
2022-11-12T04:55:26.030Z,1026.97
2022-11-12T04:56:26.041Z,1027.00
2022-11-12T04:57:26.049Z,1026.98
2022-11-12T04:58:26.309Z,1027.01
2022-11-12T04:59:26.070Z,1027.02
2022-11-12T05:00:26.079Z,1027.01
2022-11-12T05:01:26.120Z,1026.98
2022-11-12T05:02:26.103Z,1027.03
2022-11-12T05:03:26.113Z,1027.04
2022-11-12T05:04:26.120Z,1027.06
2022-11-12T05:05:28.541Z,1027.04
2022-11-12T05:06:26.139Z,1027.03
2022-11-12T05:07:26.151Z,1027.07
2022-11-12T05:08:26.522Z,1027.09
2022-11-12T05:09:26.168Z,1027.10
2022-11-12T05:10:26.179Z,1027.04
2022-11-12T05:11:26.188Z,1026.98
2022-11-12T05:12:26.197Z,1027.01
2022-11-12T05:13:26.205Z,1027.08
2022-11-12T05:14:26.217Z,1027.10
2022-11-12T05:15:26.225Z,1027.10
2022-11-12T05:16:26.240Z,1027.07
2022-11-12T05:17:26.248Z,1027.02
2022-11-12T05:18:26.562Z,1027.07
2022-11-12T05:19:26.272Z,1027.15
2022-11-12T05:20:26.275Z,1027.16
2022-11-12T05:21:26.285Z,1027.17
2022-11-12T05:22:42.679Z,1027.18
2022-11-12T05:23:26.307Z,1027.19
2022-11-12T05:24:40.915Z,1027.20
2022-11-12T05:25:26.324Z,1027.21
2022-11-12T05:26:26.335Z,1027.28
2022-11-12T05:27:26.345Z,1027.24
2022-11-12T05:28:26.502Z,1027.24
2022-11-12T05:29:26.364Z,1027.25
2022-11-12T05:30:26.374Z,1027.28
2022-11-12T05:31:26.388Z,1027.29
2022-11-12T05:32:26.394Z,1027.32
2022-11-12T05:33:26.401Z,1027.30
2022-11-12T05:34:26.409Z,1027.31
2022-11-12T05:35:26.422Z,1027.21
2022-11-12T05:36:26.431Z,1027.23
2022-11-12T05:37:26.441Z,1027.17
2022-11-12T05:38:26.711Z,1027.19
2022-11-12T05:39:26.461Z,1027.23
2022-11-12T05:40:26.469Z,1027.21
2022-11-12T05:41:26.478Z,1027.17
2022-11-12T05:42:26.497Z,1027.18
2022-11-12T05:43:26.498Z,1027.18
2022-11-12T05:44:26.508Z,1027.17
2022-11-12T05:45:26.518Z,1027.20
2022-11-12T05:46:26.526Z,1027.24
2022-11-12T05:47:26.536Z,1027.20
2022-11-12T05:48:26.933Z,1027.22
2022-11-12T05:49:26.556Z,1027.25
2022-11-12T05:50:34.828Z,1027.25
2022-11-12T05:51:26.574Z,1027.22
2022-11-12T05:52:26.583Z,1027.22
2022-11-12T05:53:26.592Z,1027.26
2022-11-12T05:54:26.602Z,1027.31
2022-11-12T05:55:26.614Z,1027.32
2022-11-12T05:56:26.622Z,1027.32
2022-11-12T05:57:26.632Z,1027.28
2022-11-12T05:58:26.909Z,1027.26
2022-11-12T05:59:26.649Z,1027.21
2022-11-12T06:00:26.660Z,1027.28
2022-11-12T06:01:26.669Z,1027.32
2022-11-12T06:02:26.731Z,1027.34
2022-11-12T06:03:26.687Z,1027.27
2022-11-12T06:04:26.695Z,1027.32
2022-11-12T06:05:26.708Z,1027.30
2022-11-12T06:06:26.717Z,1027.31
2022-11-12T06:07:26.727Z,1027.33
2022-11-12T06:08:26.985Z,1027.30
2022-11-12T06:09:26.744Z,1027.27
2022-11-12T06:10:26.753Z,1027.26
2022-11-12T06:11:26.764Z,1027.34
2022-11-12T06:12:26.773Z,1027.29
2022-11-12T06:13:26.783Z,1027.34
2022-11-12T06:14:26.791Z,1027.34
2022-11-12T06:15:26.801Z,1027.36
2022-11-12T06:16:26.809Z,1027.36
2022-11-12T06:17:26.821Z,1027.35
2022-11-12T06:18:27.033Z,1027.39
2022-11-12T06:19:26.841Z,1027.32
2022-11-12T06:20:26.852Z,1027.36
2022-11-12T06:21:26.859Z,1027.40
2022-11-12T06:22:26.869Z,1027.35
2022-11-12T06:23:26.880Z,1027.34
2022-11-12T06:24:29.509Z,1027.31
2022-11-12T06:25:26.897Z,1027.38
2022-11-12T06:26:26.907Z,1027.38
2022-11-12T06:27:26.913Z,1027.38
2022-11-12T06:28:27.126Z,1027.34
2022-11-12T06:29:26.934Z,1027.32
2022-11-12T06:30:26.942Z,1027.26
2022-11-12T06:31:26.954Z,1027.29
2022-11-12T06:32:26.962Z,1027.37
2022-11-12T06:33:26.974Z,1027.42
2022-11-12T06:34:26.980Z,1027.39
2022-11-12T06:35:26.990Z,1027.45
2022-11-12T06:36:26.998Z,1027.43
2022-11-12T06:37:27.009Z,1027.41
2022-11-12T06:38:27.300Z,1027.47
2022-11-12T06:39:27.028Z,1027.46
2022-11-12T06:40:27.039Z,1027.49
2022-11-12T06:41:27.047Z,1027.52
2022-11-12T06:42:27.055Z,1027.49
2022-11-12T06:43:27.067Z,1027.53
2022-11-12T06:44:27.077Z,1027.51
2022-11-12T06:45:27.084Z,1027.52
2022-11-12T06:46:27.094Z,1027.57
2022-11-12T06:47:27.110Z,1027.59
2022-11-12T06:48:27.323Z,1027.62
2022-11-12T06:49:27.122Z,1027.64
2022-11-12T06:50:27.130Z,1027.64
2022-11-12T06:51:27.142Z,1027.62
2022-11-12T06:52:27.150Z,1027.63
2022-11-12T06:53:27.160Z,1027.67
2022-11-12T06:54:27.169Z,1027.73
2022-11-12T06:55:27.179Z,1027.76
2022-11-12T06:56:27.189Z,1027.73
2022-11-12T06:57:27.200Z,1027.73
2022-11-12T06:58:27.506Z,1027.75
2022-11-12T06:59:27.218Z,1027.72
2022-11-12T07:00:27.225Z,1027.76
2022-11-12T07:01:27.286Z,1027.74
2022-11-12T07:02:27.248Z,1027.74
2022-11-12T07:03:27.257Z,1027.72
2022-11-12T07:04:27.267Z,1027.76
2022-11-12T07:05:27.276Z,1027.76
2022-11-12T07:06:27.284Z,1027.72
2022-11-12T07:07:27.341Z,1027.72
2022-11-12T07:08:27.605Z,1027.75
2022-11-12T07:09:27.314Z,1027.77
2022-11-12T07:10:27.323Z,1027.79
2022-11-12T07:11:27.336Z,1027.77
2022-11-12T07:12:27.351Z,1027.76
2022-11-12T07:13:27.394Z,1027.80
2022-11-12T07:14:27.363Z,1027.87
2022-11-12T07:15:27.375Z,1027.82
2022-11-12T07:16:27.379Z,1027.80
2022-11-12T07:17:27.392Z,1027.86
2022-11-12T07:18:27.653Z,1027.90
2022-11-12T07:19:27.416Z,1027.94
2022-11-12T07:20:27.424Z,1027.92
2022-11-12T07:21:27.429Z,1027.89
2022-11-12T07:22:27.444Z,1027.90
2022-11-12T07:23:27.452Z,1027.94
2022-11-12T07:24:27.460Z,1027.96
2022-11-12T07:25:27.470Z,1027.96
2022-11-12T07:26:27.482Z,1027.95
2022-11-12T07:27:27.490Z,1027.93
2022-11-12T07:28:27.651Z,1027.97
2022-11-12T07:29:46.520Z,1027.98
2022-11-12T07:30:27.519Z,1028.02
2022-11-12T07:31:27.531Z,1028.06
2022-11-12T07:32:27.541Z,1028.05
2022-11-12T07:33:27.548Z,1028.08
2022-11-12T07:34:27.559Z,1028.11
2022-11-12T07:35:27.570Z,1028.06
2022-11-12T07:36:27.582Z,1028.05
2022-11-12T07:37:27.589Z,1027.99
2022-11-12T07:38:27.827Z,1028.01
2022-11-12T07:39:27.610Z,1028.04
2022-11-12T07:40:27.688Z,1028.11
2022-11-12T07:41:27.630Z,1028.10
2022-11-12T07:42:27.643Z,1028.13
2022-11-12T07:43:27.653Z,1028.07
2022-11-12T07:44:27.673Z,1028.04
2022-11-12T07:45:27.671Z,1028.01
2022-11-12T07:46:27.681Z,1028.02
2022-11-12T07:47:27.692Z,1028.03
2022-11-12T07:48:27.943Z,1028.11
2022-11-12T07:49:27.711Z,1028.08
2022-11-12T07:50:27.760Z,1028.04
2022-11-12T07:51:27.732Z,1028.03
2022-11-12T07:52:27.745Z,1028.05
2022-11-12T07:53:27.755Z,1028.06
2022-11-12T07:54:27.764Z,1028.04
2022-11-12T07:55:27.775Z,1028.10
2022-11-12T07:56:27.783Z,1028.06
2022-11-12T07:57:27.794Z,1028.08
2022-11-12T07:58:27.993Z,1028.06
2022-11-12T07:59:27.816Z,1028.04
2022-11-12T08:00:27.935Z,1028.07
2022-11-12T08:01:27.881Z,1028.15
2022-11-12T08:02:27.847Z,1028.17
2022-11-12T08:03:27.860Z,1028.21
2022-11-12T08:04:27.867Z,1028.12
2022-11-12T08:05:27.880Z,1028.10
2022-11-12T08:06:27.888Z,1028.13
2022-11-12T08:07:27.955Z,1028.15
2022-11-12T08:08:28.385Z,1028.21
2022-11-12T08:09:27.921Z,1028.20
2022-11-12T08:10:27.937Z,1028.16
2022-11-12T08:11:27.947Z,1028.15
2022-11-12T08:12:27.950Z,1028.09
2022-11-12T08:13:27.965Z,1028.14
2022-11-12T08:14:27.975Z,1028.17
2022-11-12T08:15:27.987Z,1028.21
2022-11-12T08:16:27.994Z,1028.23
2022-11-12T08:17:28.007Z,1028.22
2022-11-12T08:18:28.234Z,1028.21
2022-11-12T08:19:28.029Z,1028.18
2022-11-12T08:20:28.040Z,1028.14
2022-11-12T08:21:28.049Z,1028.15
2022-11-12T08:22:28.061Z,1028.16
2022-11-12T08:23:28.072Z,1028.20
2022-11-12T08:24:28.081Z,1028.20
2022-11-12T08:25:28.094Z,1028.26
2022-11-12T08:26:28.106Z,1028.22
2022-11-12T08:27:28.117Z,1028.18
2022-11-12T08:28:28.464Z,1028.12
2022-11-12T08:29:28.138Z,1028.12
2022-11-12T08:30:28.149Z,1028.13
2022-11-12T08:31:28.159Z,1028.13
2022-11-12T08:32:28.169Z,1028.04
2022-11-12T08:33:28.182Z,1028.04
2022-11-12T08:34:28.193Z,1028.09
2022-11-12T08:35:28.207Z,1028.15
2022-11-12T08:36:28.214Z,1028.15
2022-11-12T08:37:28.226Z,1028.12
2022-11-12T08:38:28.560Z,1028.12
2022-11-12T08:39:28.250Z,1028.05
2022-11-12T08:40:28.261Z,1028.05
2022-11-12T08:41:28.271Z,1028.08
2022-11-12T08:42:28.281Z,1028.10
2022-11-12T08:43:28.296Z,1028.21
2022-11-12T08:44:28.305Z,1028.22
2022-11-12T08:45:28.321Z,1028.19
2022-11-12T08:46:28.330Z,1028.15
2022-11-12T08:47:28.341Z,1028.12
2022-11-12T08:48:28.634Z,1028.03
2022-11-12T08:49:28.362Z,1028.05
2022-11-12T08:50:28.382Z,1028.12
2022-11-12T08:51:28.388Z,1028.14
2022-11-12T08:52:28.397Z,1028.15
2022-11-12T08:53:28.414Z,1028.14
2022-11-12T08:54:28.424Z,1028.10
2022-11-12T08:55:28.434Z,1028.04
2022-11-12T08:56:28.445Z,1028.08
2022-11-12T08:57:28.457Z,1028.09
2022-11-12T08:58:28.802Z,1028.11
2022-11-12T08:59:28.481Z,1028.10
2022-11-12T09:00:28.492Z,1028.11
2022-11-12T09:01:28.554Z,1028.12
2022-11-12T09:02:28.518Z,1028.16
2022-11-12T09:03:28.529Z,1028.14
2022-11-12T09:04:28.540Z,1028.13
2022-11-12T09:05:28.557Z,1028.07
2022-11-12T09:06:28.566Z,1028.09
2022-11-12T09:07:48.731Z,1028.14
2022-11-12T09:08:28.990Z,1028.16
2022-11-12T09:09:28.603Z,1028.15
2022-11-12T09:10:28.611Z,1028.15
2022-11-12T09:11:28.625Z,1028.06
2022-11-12T09:12:28.637Z,1028.07
2022-11-12T09:13:28.750Z,1028.07
2022-11-12T09:14:28.661Z,1028.08
2022-11-12T09:15:37.371Z,1028.12
2022-11-12T09:16:28.685Z,1028.14
2022-11-12T09:17:28.696Z,1028.12
2022-11-12T09:18:29.081Z,1028.16
2022-11-12T09:19:28.720Z,1028.17
2022-11-12T09:20:28.735Z,1028.19
2022-11-12T09:21:28.747Z,1028.21
2022-11-12T09:22:28.760Z,1028.25
2022-11-12T09:23:28.773Z,1028.28
2022-11-12T09:24:28.788Z,1028.30
2022-11-12T09:25:28.800Z,1028.26
2022-11-12T09:26:28.811Z,1028.21
2022-11-12T09:27:28.822Z,1028.23
2022-11-12T09:28:29.167Z,1028.22
2022-11-12T09:29:28.847Z,1028.26
2022-11-12T09:30:28.859Z,1028.29
2022-11-12T09:31:28.875Z,1028.28
2022-11-12T09:32:28.885Z,1028.30
2022-11-12T09:33:28.901Z,1028.28
2022-11-12T09:34:28.913Z,1028.27
2022-11-12T09:35:28.924Z,1028.22
2022-11-12T09:36:28.937Z,1028.19
2022-11-12T09:37:28.952Z,1028.16
2022-11-12T09:38:29.077Z,1028.15
2022-11-12T09:39:28.976Z,1028.16
2022-11-12T09:40:28.988Z,1028.26
2022-11-12T09:41:29.003Z,1028.32
2022-11-12T09:42:29.015Z,1028.35
2022-11-12T09:43:29.029Z,1028.32
2022-11-12T09:44:32.832Z,1028.36
2022-11-12T09:45:29.057Z,1028.31
2022-11-12T09:46:29.067Z,1028.30
2022-11-12T09:47:29.083Z,1028.29
2022-11-12T09:48:29.211Z,1028.29
2022-11-12T09:49:29.108Z,1028.28
2022-11-12T09:50:29.121Z,1028.21
2022-11-12T09:51:29.136Z,1028.24
2022-11-12T09:52:29.149Z,1028.18
2022-11-12T09:53:29.161Z,1028.19
2022-11-12T09:54:29.176Z,1028.21
2022-11-12T09:55:29.192Z,1028.19
2022-11-12T09:56:29.203Z,1028.24
2022-11-12T09:57:29.217Z,1028.28
2022-11-12T09:58:29.581Z,1028.30
2022-11-12T09:59:29.254Z,1028.23
2022-11-12T10:00:29.263Z,1028.18
2022-11-12T10:01:29.304Z,1028.11
2022-11-12T10:02:29.290Z,1028.04
2022-11-12T10:03:29.311Z,1028.09
2022-11-12T10:04:29.320Z,1028.10
2022-11-12T10:05:29.330Z,1028.18
2022-11-12T10:06:29.347Z,1028.17
2022-11-12T10:07:29.366Z,1028.22
2022-11-12T10:08:29.694Z,1028.14
2022-11-12T10:09:29.397Z,1028.12
2022-11-12T10:10:29.410Z,1028.08
2022-11-12T10:11:29.419Z,1028.06
2022-11-12T10:12:29.434Z,1028.07
2022-11-12T10:13:29.449Z,1028.07
2022-11-12T10:14:29.466Z,1028.05
2022-11-12T10:15:29.481Z,1028.02
2022-11-12T10:16:29.496Z,1028.06
2022-11-12T10:17:29.512Z,1028.08
2022-11-12T10:18:29.691Z,1028.13
2022-11-12T10:19:29.542Z,1028.10
2022-11-12T10:20:31.597Z,1028.09
2022-11-12T10:21:29.571Z,1028.13
2022-11-12T10:22:29.589Z,1028.15
2022-11-12T10:23:29.602Z,1028.15
2022-11-12T10:24:29.620Z,1028.15
2022-11-12T10:25:29.635Z,1028.09
2022-11-12T10:26:29.649Z,1028.00
2022-11-12T10:27:29.668Z,1028.00
2022-11-12T10:28:33.021Z,1028.05
2022-11-12T10:29:29.698Z,1028.06
2022-11-12T10:30:29.717Z,1028.16
2022-11-12T10:31:29.730Z,1028.23
2022-11-12T10:32:29.745Z,1028.24
2022-11-12T10:33:29.767Z,1028.28
2022-11-12T10:34:29.776Z,1028.23
2022-11-12T10:35:29.798Z,1028.15
2022-11-12T10:36:29.811Z,1028.07
2022-11-12T10:37:29.833Z,1028.02
2022-11-12T10:38:29.964Z,1028.01
2022-11-12T10:39:29.862Z,1028.02
2022-11-12T10:40:29.876Z,1028.11
2022-11-12T10:41:29.895Z,1028.20
2022-11-12T10:42:29.911Z,1028.24
2022-11-12T10:43:29.931Z,1028.24
2022-11-12T10:44:29.942Z,1028.23
2022-11-12T10:45:29.967Z,1028.14
2022-11-12T10:46:29.979Z,1027.98
2022-11-12T10:47:29.995Z,1027.85
2022-11-12T10:48:30.254Z,1027.82
2022-11-12T10:49:30.027Z,1027.87
2022-11-12T10:50:30.047Z,1028.02
2022-11-12T10:51:30.063Z,1028.13
2022-11-12T10:52:30.079Z,1028.25
2022-11-12T10:53:30.097Z,1028.26
2022-11-12T10:54:30.118Z,1028.19
2022-11-12T10:55:30.131Z,1028.13
2022-11-12T10:56:30.146Z,1028.02
2022-11-12T10:57:30.167Z,1028.01
2022-11-12T10:58:30.351Z,1028.00
2022-11-12T10:59:30.202Z,1028.04
2022-11-12T11:00:30.218Z,1028.14
2022-11-12T11:01:35.324Z,1028.19
2022-11-12T11:02:30.303Z,1028.19
2022-11-12T11:03:30.275Z,1028.19
2022-11-12T11:04:30.291Z,1028.13
2022-11-12T11:05:30.305Z,1028.09
2022-11-12T11:06:30.327Z,1028.04
2022-11-12T11:07:30.344Z,1028.03
2022-11-12T11:08:34.686Z,1028.06
2022-11-12T11:09:30.376Z,1028.06
2022-11-12T11:10:30.398Z,1028.14
2022-11-12T11:11:30.412Z,1028.15
2022-11-12T11:12:30.429Z,1028.09
2022-11-12T11:13:30.449Z,1028.03
2022-11-12T11:14:30.463Z,1027.97
2022-11-12T11:15:30.482Z,1027.95
2022-11-12T11:16:30.500Z,1027.97
2022-11-12T11:17:30.516Z,1028.05
2022-11-12T11:18:30.537Z,1028.07
2022-11-12T11:19:30.554Z,1028.03
2022-11-12T11:20:30.571Z,1028.08
2022-11-12T11:21:30.592Z,1028.05
2022-11-12T11:22:30.608Z,1028.02
2022-11-12T11:23:30.622Z,1028.01
2022-11-12T11:24:30.642Z,1028.04
2022-11-12T11:25:30.662Z,1028.05
2022-11-12T11:26:30.676Z,1028.05
2022-11-12T11:27:30.694Z,1028.04
2022-11-12T11:28:30.711Z,1028.04
2022-11-12T11:29:30.731Z,1028.01
2022-11-12T11:30:30.749Z,1027.91
2022-11-12T11:31:30.766Z,1027.86
2022-11-12T11:32:36.081Z,1027.82
2022-11-12T11:33:30.800Z,1027.83
2022-11-12T11:34:30.819Z,1027.83
2022-11-12T11:35:30.838Z,1027.90
2022-11-12T11:36:30.856Z,1027.92
2022-11-12T11:37:30.869Z,1027.97
2022-11-12T11:38:30.891Z,1027.95
2022-11-12T11:39:30.910Z,1027.87
2022-11-12T11:40:30.925Z,1027.85
2022-11-12T11:41:30.946Z,1027.78
2022-11-12T11:42:30.961Z,1027.79
2022-11-12T11:43:30.980Z,1027.81
2022-11-12T11:44:31.036Z,1027.81
2022-11-12T11:45:31.014Z,1027.79
2022-11-12T11:46:31.031Z,1027.77
2022-11-12T11:47:50.367Z,1027.79
2022-11-12T11:48:31.069Z,1027.80
2022-11-12T11:49:31.083Z,1027.78
2022-11-12T11:50:31.103Z,1027.78
2022-11-12T11:51:31.121Z,1027.75
2022-11-12T11:52:31.135Z,1027.72
2022-11-12T11:53:31.157Z,1027.75
2022-11-12T11:54:31.178Z,1027.73
2022-11-12T11:55:31.192Z,1027.73
2022-11-12T11:56:31.205Z,1027.79
2022-11-12T11:57:31.241Z,1027.79
2022-11-12T11:58:31.249Z,1027.80
2022-11-12T11:59:31.257Z,1027.74
2022-11-12T12:00:31.275Z,1027.71
2022-11-12T12:01:31.291Z,1027.70
2022-11-12T12:02:31.311Z,1027.76
2022-11-12T12:03:33.033Z,1027.75
2022-11-12T12:04:31.346Z,1027.77
2022-11-12T12:05:31.362Z,1027.78